sensor_id;sensor_type;location;lat;lon;timestamp;temperature;humidity
8459;DHT22;4266;48.816;9.154;2024-01-25T00:01:19;9.60;80.90
8459;DHT22;4266;48.816;9.154;2024-01-25T00:03:45;9.60;80.90
8459;DHT22;4266;48.816;9.154;2024-01-25T00:06:11;9.60;81.20
8459;DHT22;4266;48.816;9.154;2024-01-25T00:08:36;9.60;81.30
8459;DHT22;4266;48.816;9.154;2024-01-25T00:13:59;9.60;81.40
8459;DHT22;4266;48.816;9.154;2024-01-25T00:16:25;9.60;81.40
8459;DHT22;4266;48.816;9.154;2024-01-25T00:18:50;9.60;81.40
8459;DHT22;4266;48.816;9.154;2024-01-25T00:21:16;9.60;81.40
8459;DHT22;4266;48.816;9.154;2024-01-25T00:23:42;9.60;81.50
8459;DHT22;4266;48.816;9.154;2024-01-25T00:26:07;9.70;81.50
8459;DHT22;4266;48.816;9.154;2024-01-25T00:28:33;9.60;81.70
8459;DHT22;4266;48.816;9.154;2024-01-25T00:30:59;9.60;81.90
8459;DHT22;4266;48.816;9.154;2024-01-25T00:33:24;9.70;82.40
8459;DHT22;4266;48.816;9.154;2024-01-25T00:35:51;9.70;82.60
8459;DHT22;4266;48.816;9.154;2024-01-25T00:38:17;9.70;82.60
8459;DHT22;4266;48.816;9.154;2024-01-25T00:40:44;9.70;82.90
8459;DHT22;4266;48.816;9.154;2024-01-25T00:43:10;9.70;83.00
8459;DHT22;4266;48.816;9.154;2024-01-25T00:48:29;9.80;83.60
8459;DHT22;4266;48.816;9.154;2024-01-25T00:50:56;9.70;84.00
8459;DHT22;4266;48.816;9.154;2024-01-25T00:53:22;9.80;84.40
8459;DHT22;4266;48.816;9.154;2024-01-25T00:55:49;9.80;84.80
8459;DHT22;4266;48.816;9.154;2024-01-25T00:58:17;9.80;84.80
8459;DHT22;4266;48.816;9.154;2024-01-25T01:00:43;9.80;84.60
8459;DHT22;4266;48.816;9.154;2024-01-25T01:03:09;9.80;84.70
8459;DHT22;4266;48.816;9.154;2024-01-25T01:05:35;9.90;85.20
8459;DHT22;4266;48.816;9.154;2024-01-25T01:08:01;9.90;85.20
8459;DHT22;4266;48.816;9.154;2024-01-25T01:10:27;9.80;85.40
8459;DHT22;4266;48.816;9.154;2024-01-25T01:12:53;9.90;85.80
8459;DHT22;4266;48.816;9.154;2024-01-25T01:15:19;9.90;85.90
8459;DHT22;4266;48.816;9.154;2024-01-25T01:17:44;9.90;86.10
8459;DHT22;4266;48.816;9.154;2024-01-25T01:20:11;9.90;86.20
8459;DHT22;4266;48.816;9.154;2024-01-25T01:22:37;9.90;86.20
8459;DHT22;4266;48.816;9.154;2024-01-25T01:25:03;9.90;86.00
8459;DHT22;4266;48.816;9.154;2024-01-25T01:27:29;9.90;86.10
8459;DHT22;4266;48.816;9.154;2024-01-25T01:29:54;9.90;86.30
8459;DHT22;4266;48.816;9.154;2024-01-25T01:32:20;9.90;86.20
8459;DHT22;4266;48.816;9.154;2024-01-25T01:34:46;9.90;86.00
8459;DHT22;4266;48.816;9.154;2024-01-25T01:37:12;9.90;86.00
8459;DHT22;4266;48.816;9.154;2024-01-25T01:39:38;9.90;86.00
8459;DHT22;4266;48.816;9.154;2024-01-25T01:42:03;9.90;85.60
8459;DHT22;4266;48.816;9.154;2024-01-25T01:44:30;9.90;85.60
8459;DHT22;4266;48.816;9.154;2024-01-25T01:46:56;9.90;85.50
8459;DHT22;4266;48.816;9.154;2024-01-25T01:49:21;9.90;85.60
8459;DHT22;4266;48.816;9.154;2024-01-25T01:51:47;9.90;85.70
8459;DHT22;4266;48.816;9.154;2024-01-25T01:54:13;9.90;85.70
8459;DHT22;4266;48.816;9.154;2024-01-25T01:56:38;9.90;85.60
8459;DHT22;4266;48.816;9.154;2024-01-25T01:59:04;9.90;85.40
8459;DHT22;4266;48.816;9.154;2024-01-25T02:01:30;9.90;85.40
8459;DHT22;4266;48.816;9.154;2024-01-25T02:03:55;9.90;85.30
8459;DHT22;4266;48.816;9.154;2024-01-25T02:06:21;9.90;85.10
8459;DHT22;4266;48.816;9.154;2024-01-25T02:08:48;9.90;85.10
8459;DHT22;4266;48.816;9.154;2024-01-25T02:11:13;9.80;84.70
8459;DHT22;4266;48.816;9.154;2024-01-25T02:13:39;9.80;84.60
8459;DHT22;4266;48.816;9.154;2024-01-25T02:16:07;9.80;84.80
8459;DHT22;4266;48.816;9.154;2024-01-25T02:18:31;9.80;84.70
8459;DHT22;4266;48.816;9.154;2024-01-25T02:20:57;9.80;84.50
8459;DHT22;4266;48.816;9.154;2024-01-25T02:23:23;9.70;84.40
8459;DHT22;4266;48.816;9.154;2024-01-25T02:25:48;9.70;84.40
8459;DHT22;4266;48.816;9.154;2024-01-25T02:28:14;9.70;84.40
8459;DHT22;4266;48.816;9.154;2024-01-25T02:30:41;9.60;84.30
8459;DHT22;4266;48.816;9.154;2024-01-25T02:33:06;9.60;84.30
8459;DHT22;4266;48.816;9.154;2024-01-25T02:35:32;9.60;84.30
8459;DHT22;4266;48.816;9.154;2024-01-25T02:37:58;9.60;84.10
8459;DHT22;4266;48.816;9.154;2024-01-25T02:40:23;9.60;83.90
8459;DHT22;4266;48.816;9.154;2024-01-25T02:42:50;9.60;83.90
8459;DHT22;4266;48.816;9.154;2024-01-25T02:45:16;9.60;83.90
8459;DHT22;4266;48.816;9.154;2024-01-25T02:47:42;9.60;84.30
8459;DHT22;4266;48.816;9.154;2024-01-25T02:50:08;9.60;84.20
8459;DHT22;4266;48.816;9.154;2024-01-25T02:52:35;9.60;84.20
8459;DHT22;4266;48.816;9.154;2024-01-25T02:55:00;9.60;84.10
8459;DHT22;4266;48.816;9.154;2024-01-25T02:57:26;9.50;84.10
8459;DHT22;4266;48.816;9.154;2024-01-25T02:59:52;9.50;84.50
8459;DHT22;4266;48.816;9.154;2024-01-25T03:02:18;9.60;84.50
8459;DHT22;4266;48.816;9.154;2024-01-25T03:04:43;9.60;84.50
8459;DHT22;4266;48.816;9.154;2024-01-25T03:07:09;9.60;84.70
8459;DHT22;4266;48.816;9.154;2024-01-25T03:09:35;9.50;84.30
8459;DHT22;4266;48.816;9.154;2024-01-25T03:12:01;9.50;84.70
8459;DHT22;4266;48.816;9.154;2024-01-25T03:14:27;9.50;84.70
8459;DHT22;4266;48.816;9.154;2024-01-25T03:16:52;9.50;84.50
8459;DHT22;4266;48.816;9.154;2024-01-25T03:19:19;9.50;85.10
8459;DHT22;4266;48.816;9.154;2024-01-25T03:21:44;9.50;84.60
8459;DHT22;4266;48.816;9.154;2024-01-25T03:24:10;9.50;84.60
8459;DHT22;4266;48.816;9.154;2024-01-25T03:26:36;9.50;84.40
8459;DHT22;4266;48.816;9.154;2024-01-25T03:29:02;9.40;84.40
8459;DHT22;4266;48.816;9.154;2024-01-25T03:31:29;9.40;84.70
8459;DHT22;4266;48.816;9.154;2024-01-25T03:33:55;9.40;84.60
8459;DHT22;4266;48.816;9.154;2024-01-25T03:36:21;9.50;85.10
8459;DHT22;4266;48.816;9.154;2024-01-25T03:38:47;9.50;85.10
8459;DHT22;4266;48.816;9.154;2024-01-25T03:41:13;9.40;85.20
8459;DHT22;4266;48.816;9.154;2024-01-25T03:43:38;9.40;85.20
8459;DHT22;4266;48.816;9.154;2024-01-25T03:46:04;9.40;85.50
8459;DHT22;4266;48.816;9.154;2024-01-25T03:48:30;9.40;85.40
8459;DHT22;4266;48.816;9.154;2024-01-25T03:50:55;9.30;85.90
8459;DHT22;4266;48.816;9.154;2024-01-25T03:53:21;9.40;86.00
8459;DHT22;4266;48.816;9.154;2024-01-25T03:55:47;9.40;85.90
8459;DHT22;4266;48.816;9.154;2024-01-25T04:00:59;9.30;86.30
8459;DHT22;4266;48.816;9.154;2024-01-25T04:03:26;9.20;87.10
8459;DHT22;4266;48.816;9.154;2024-01-25T04:05:51;9.20;87.10
8459;DHT22;4266;48.816;9.154;2024-01-25T04:08:18;9.20;87.10
8459;DHT22;4266;48.816;9.154;2024-01-25T04:10:43;9.20;87.10
8459;DHT22;4266;48.816;9.154;2024-01-25T04:13:10;9.20;86.60
8459;DHT22;4266;48.816;9.154;2024-01-25T04:15:35;9.20;86.60
8459;DHT22;4266;48.816;9.154;2024-01-25T04:18:01;9.20;86.80
8459;DHT22;4266;48.816;9.154;2024-01-25T04:20:27;9.20;86.40
8459;DHT22;4266;48.816;9.154;2024-01-25T04:22:52;9.20;87.40
8459;DHT22;4266;48.816;9.154;2024-01-25T04:25:18;9.20;86.60
8459;DHT22;4266;48.816;9.154;2024-01-25T04:27:48;9.10;87.10
8459;DHT22;4266;48.816;9.154;2024-01-25T04:30:14;9.10;87.10
8459;DHT22;4266;48.816;9.154;2024-01-25T04:32:40;9.10;87.10
8459;DHT22;4266;48.816;9.154;2024-01-25T04:35:06;9.10;87.30
8459;DHT22;4266;48.816;9.154;2024-01-25T04:37:32;9.00;87.90
8459;DHT22;4266;48.816;9.154;2024-01-25T04:39:58;9.00;87.90
8459;DHT22;4266;48.816;9.154;2024-01-25T04:42:24;9.00;88.10
8459;DHT22;4266;48.816;9.154;2024-01-25T04:44:50;9.00;88.10
8459;DHT22;4266;48.816;9.154;2024-01-25T04:47:15;9.00;87.80
8459;DHT22;4266;48.816;9.154;2024-01-25T04:49:41;9.00;88.30
8459;DHT22;4266;48.816;9.154;2024-01-25T04:52:07;8.90;88.40
8459;DHT22;4266;48.816;9.154;2024-01-25T04:54:34;8.90;87.50
8459;DHT22;4266;48.816;9.154;2024-01-25T04:57:00;8.90;87.50
8459;DHT22;4266;48.816;9.154;2024-01-25T04:59:26;8.90;87.50
8459;DHT22;4266;48.816;9.154;2024-01-25T05:01:52;8.90;85.70
8459;DHT22;4266;48.816;9.154;2024-01-25T05:04:18;8.80;85.60
8459;DHT22;4266;48.816;9.154;2024-01-25T05:06:44;8.80;84.70
8459;DHT22;4266;48.816;9.154;2024-01-25T05:09:10;8.80;85.00
8459;DHT22;4266;48.816;9.154;2024-01-25T05:11:38;8.80;84.80
8459;DHT22;4266;48.816;9.154;2024-01-25T05:14:03;8.70;84.70
8459;DHT22;4266;48.816;9.154;2024-01-25T05:16:29;8.40;85.60
8459;DHT22;4266;48.816;9.154;2024-01-25T05:18:55;8.40;85.60
8459;DHT22;4266;48.816;9.154;2024-01-25T05:21:21;8.20;86.50
8459;DHT22;4266;48.816;9.154;2024-01-25T05:23:47;8.20;86.50
8459;DHT22;4266;48.816;9.154;2024-01-25T05:26:13;8.20;86.70
8459;DHT22;4266;48.816;9.154;2024-01-25T05:34:09;7.80;89.70
8459;DHT22;4266;48.816;9.154;2024-01-25T05:36:35;7.70;89.20
8459;DHT22;4266;48.816;9.154;2024-01-25T05:39:00;7.80;89.00
8459;DHT22;4266;48.816;9.154;2024-01-25T05:41:27;7.60;90.00
8459;DHT22;4266;48.816;9.154;2024-01-25T05:43:52;7.50;89.80
8459;DHT22;4266;48.816;9.154;2024-01-25T05:46:18;7.50;90.30
8459;DHT22;4266;48.816;9.154;2024-01-25T05:48:44;7.40;90.40
8459;DHT22;4266;48.816;9.154;2024-01-25T05:51:09;7.40;90.60
8459;DHT22;4266;48.816;9.154;2024-01-25T05:53:35;7.30;90.70
8459;DHT22;4266;48.816;9.154;2024-01-25T05:56:01;7.30;91.20
8459;DHT22;4266;48.816;9.154;2024-01-25T05:58:26;7.20;91.40
8459;DHT22;4266;48.816;9.154;2024-01-25T06:00:53;7.20;92.00
8459;DHT22;4266;48.816;9.154;2024-01-25T06:03:19;7.10;92.20
8459;DHT22;4266;48.816;9.154;2024-01-25T06:05:45;7.10;92.20
8459;DHT22;4266;48.816;9.154;2024-01-25T06:08:11;7.00;93.00
8459;DHT22;4266;48.816;9.154;2024-01-25T06:10:37;7.00;93.00
8459;DHT22;4266;48.816;9.154;2024-01-25T06:13:03;6.90;93.10
8459;DHT22;4266;48.816;9.154;2024-01-25T06:15:29;6.80;93.90
8459;DHT22;4266;48.816;9.154;2024-01-25T06:17:55;6.70;95.30
8459;DHT22;4266;48.816;9.154;2024-01-25T06:20:21;6.70;95.30
8459;DHT22;4266;48.816;9.154;2024-01-25T06:22:48;6.60;96.70
8459;DHT22;4266;48.816;9.154;2024-01-25T06:25:13;6.60;96.70
8459;DHT22;4266;48.816;9.154;2024-01-25T06:27:39;6.50;97.30
8459;DHT22;4266;48.816;9.154;2024-01-25T06:30:06;6.60;98.60
8459;DHT22;4266;48.816;9.154;2024-01-25T06:32:32;6.50;98.60
8459;DHT22;4266;48.816;9.154;2024-01-25T06:34:58;6.50;98.70
8459;DHT22;4266;48.816;9.154;2024-01-25T06:37:24;6.30;99.10
8459;DHT22;4266;48.816;9.154;2024-01-25T06:39:49;6.30;99.90
8459;DHT22;4266;48.816;9.154;2024-01-25T06:42:15;6.40;99.90
8459;DHT22;4266;48.816;9.154;2024-01-25T06:44:41;6.30;99.90
8459;DHT22;4266;48.816;9.154;2024-01-25T06:47:06;6.20;99.90
8459;DHT22;4266;48.816;9.154;2024-01-25T06:49:32;6.20;99.90
8459;DHT22;4266;48.816;9.154;2024-01-25T06:51:58;6.10;99.90
8459;DHT22;4266;48.816;9.154;2024-01-25T06:54:23;6.10;99.90
8459;DHT22;4266;48.816;9.154;2024-01-25T06:56:49;6.20;99.90
8459;DHT22;4266;48.816;9.154;2024-01-25T06:59:15;6.10;99.90
8459;DHT22;4266;48.816;9.154;2024-01-25T07:01:41;6.20;99.90
8459;DHT22;4266;48.816;9.154;2024-01-25T07:04:08;6.20;99.90
8459;DHT22;4266;48.816;9.154;2024-01-25T07:06:33;6.20;99.90
8459;DHT22;4266;48.816;9.154;2024-01-25T07:08:59;6.30;99.90
8459;DHT22;4266;48.816;9.154;2024-01-25T07:11:25;6.30;99.90
8459;DHT22;4266;48.816;9.154;2024-01-25T07:13:50;6.30;99.90
8459;DHT22;4266;48.816;9.154;2024-01-25T07:16:17;6.40;99.90
8459;DHT22;4266;48.816;9.154;2024-01-25T07:18:44;6.50;99.90
8459;DHT22;4266;48.816;9.154;2024-01-25T07:21:10;6.50;99.90
8459;DHT22;4266;48.816;9.154;2024-01-25T07:23:35;6.60;99.90
8459;DHT22;4266;48.816;9.154;2024-01-25T07:26:02;6.70;99.90
8459;DHT22;4266;48.816;9.154;2024-01-25T07:28:27;6.70;99.90
8459;DHT22;4266;48.816;9.154;2024-01-25T07:30:55;7.00;99.40
8459;DHT22;4266;48.816;9.154;2024-01-25T07:33:20;7.00;99.40
8459;DHT22;4266;48.816;9.154;2024-01-25T07:35:46;7.00;98.80
8459;DHT22;4266;48.816;9.154;2024-01-25T07:38:12;7.30;98.70
8459;DHT22;4266;48.816;9.154;2024-01-25T07:40:37;7.80;97.00
8459;DHT22;4266;48.816;9.154;2024-01-25T07:43:04;9.10;93.20
8459;DHT22;4266;48.816;9.154;2024-01-25T07:45:30;9.00;93.10
8459;DHT22;4266;48.816;9.154;2024-01-25T07:47:55;9.50;91.50
8459;DHT22;4266;48.816;9.154;2024-01-25T07:50:21;9.80;90.40
8459;DHT22;4266;48.816;9.154;2024-01-25T07:52:46;10.20;87.30
8459;DHT22;4266;48.816;9.154;2024-01-25T07:55:12;11.20;85.30
8459;DHT22;4266;48.816;9.154;2024-01-25T07:57:38;11.60;80.50
8459;DHT22;4266;48.816;9.154;2024-01-25T08:00:05;11.80;79.30
8459;DHT22;4266;48.816;9.154;2024-01-25T08:02:31;12.00;78.40
8459;DHT22;4266;48.816;9.154;2024-01-25T08:04:57;12.60;74.80
8459;DHT22;4266;48.816;9.154;2024-01-25T08:07:23;12.60;74.70
8459;DHT22;4266;48.816;9.154;2024-01-25T08:09:49;12.70;73.40
8459;DHT22;4266;48.816;9.154;2024-01-25T08:12:15;13.60;71.10
8459;DHT22;4266;48.816;9.154;2024-01-25T08:14:41;13.60;71.20
8459;DHT22;4266;48.816;9.154;2024-01-25T08:17:14;14.10;68.20
8459;DHT22;4266;48.816;9.154;2024-01-25T08:19:40;14.60;65.30
8459;DHT22;4266;48.816;9.154;2024-01-25T08:22:06;14.70;65.30
8459;DHT22;4266;48.816;9.154;2024-01-25T08:24:32;15.20;62.90
8459;DHT22;4266;48.816;9.154;2024-01-25T08:26:58;15.90;59.90
8459;DHT22;4266;48.816;9.154;2024-01-25T08:29:24;15.90;59.90
8459;DHT22;4266;48.816;9.154;2024-01-25T08:31:49;16.10;59.20
8459;DHT22;4266;48.816;9.154;2024-01-25T08:34:15;16.60;57.90
8459;DHT22;4266;48.816;9.154;2024-01-25T08:36:41;17.10;57.40
8459;DHT22;4266;48.816;9.154;2024-01-25T08:39:06;17.60;56.20
8459;DHT22;4266;48.816;9.154;2024-01-25T08:41:33;17.60;55.20
8459;DHT22;4266;48.816;9.154;2024-01-25T08:43:58;17.60;55.10
8459;DHT22;4266;48.816;9.154;2024-01-25T08:46:25;18.30;53.30
8459;DHT22;4266;48.816;9.154;2024-01-25T08:48:50;18.30;53.30
8459;DHT22;4266;48.816;9.154;2024-01-25T08:51:16;18.50;52.70
8459;DHT22;4266;48.816;9.154;2024-01-25T08:53:42;18.30;52.10
8459;DHT22;4266;48.816;9.154;2024-01-25T08:56:07;19.50;51.40
8459;DHT22;4266;48.816;9.154;2024-01-25T08:58:33;19.30;51.10
8459;DHT22;4266;48.816;9.154;2024-01-25T09:00:59;19.40;50.70
8459;DHT22;4266;48.816;9.154;2024-01-25T09:03:24;19.40;50.00
8459;DHT22;4266;48.816;9.154;2024-01-25T09:05:50;20.30;49.80
8459;DHT22;4266;48.816;9.154;2024-01-25T09:08:16;19.80;49.40
8459;DHT22;4266;48.816;9.154;2024-01-25T09:10:42;20.90;49.50
8459;DHT22;4266;48.816;9.154;2024-01-25T09:13:08;21.20;48.30
8459;DHT22;4266;48.816;9.154;2024-01-25T09:15:33;21.20;47.80
8459;DHT22;4266;48.816;9.154;2024-01-25T09:17:59;21.90;47.30
8459;DHT22;4266;48.816;9.154;2024-01-25T09:20:24;22.30;46.40
8459;DHT22;4266;48.816;9.154;2024-01-25T09:22:51;21.40;46.20
8459;DHT22;4266;48.816;9.154;2024-01-25T09:25:17;21.40;46.20
8459;DHT22;4266;48.816;9.154;2024-01-25T09:27:42;21.90;45.90
8459;DHT22;4266;48.816;9.154;2024-01-25T09:30:09;22.40;45.80
8459;DHT22;4266;48.816;9.154;2024-01-25T09:32:35;22.60;45.90
8459;DHT22;4266;48.816;9.154;2024-01-25T09:35:01;22.60;44.90
8459;DHT22;4266;48.816;9.154;2024-01-25T09:37:27;22.60;44.90
8459;DHT22;4266;48.816;9.154;2024-01-25T09:39:54;21.50;44.30
8459;DHT22;4266;48.816;9.154;2024-01-25T09:42:19;21.50;44.30
8459;DHT22;4266;48.816;9.154;2024-01-25T09:44:45;23.70;44.70
8459;DHT22;4266;48.816;9.154;2024-01-25T09:47:11;19.80;44.20
8459;DHT22;4266;48.816;9.154;2024-01-25T09:49:37;19.70;44.10
8459;DHT22;4266;48.816;9.154;2024-01-25T09:52:05;18.60;45.10
8459;DHT22;4266;48.816;9.154;2024-01-25T09:54:32;18.60;45.10
8459;DHT22;4266;48.816;9.154;2024-01-25T09:56:56;17.90;45.60
8459;DHT22;4266;48.816;9.154;2024-01-25T09:59:22;18.00;45.70
8459;DHT22;4266;48.816;9.154;2024-01-25T10:01:48;17.90;45.70
8459;DHT22;4266;48.816;9.154;2024-01-25T10:04:14;17.20;46.30
8459;DHT22;4266;48.816;9.154;2024-01-25T10:06:39;17.20;46.60
8459;DHT22;4266;48.816;9.154;2024-01-25T10:09:05;16.20;46.30
8459;DHT22;4266;48.816;9.154;2024-01-25T10:11:31;15.90;46.70
8459;DHT22;4266;48.816;9.154;2024-01-25T10:13:56;15.70;46.70
8459;DHT22;4266;48.816;9.154;2024-01-25T10:16:22;15.30;46.60
8459;DHT22;4266;48.816;9.154;2024-01-25T10:18:48;15.60;47.60
8459;DHT22;4266;48.816;9.154;2024-01-25T10:21:14;15.90;47.10
8459;DHT22;4266;48.816;9.154;2024-01-25T10:23:39;15.50;47.10
8459;DHT22;4266;48.816;9.154;2024-01-25T10:26:07;16.80;45.80
8459;DHT22;4266;48.816;9.154;2024-01-25T10:28:32;15.80;46.50
8459;DHT22;4266;48.816;9.154;2024-01-25T10:30:59;15.70;46.40
8459;DHT22;4266;48.816;9.154;2024-01-25T10:33:24;15.40;47.40
8459;DHT22;4266;48.816;9.154;2024-01-25T10:35:49;15.00;47.40
8459;DHT22;4266;48.816;9.154;2024-01-25T10:38:17;17.40;48.00
8459;DHT22;4266;48.816;9.154;2024-01-25T10:40:45;18.10;46.00
8459;DHT22;4266;48.816;9.154;2024-01-25T10:43:10;16.30;46.40
8459;DHT22;4266;48.816;9.154;2024-01-25T10:45:36;16.20;46.30
8459;DHT22;4266;48.816;9.154;2024-01-25T10:48:02;18.00;47.10
8459;DHT22;4266;48.816;9.154;2024-01-25T10:50:28;18.30;45.40
8459;DHT22;4266;48.816;9.154;2024-01-25T10:52:54;18.20;45.30
8459;DHT22;4266;48.816;9.154;2024-01-25T10:55:20;17.40;47.10
8459;DHT22;4266;48.816;9.154;2024-01-25T10:57:46;20.00;45.70
8459;DHT22;4266;48.816;9.154;2024-01-25T11:00:13;20.50;46.60
8459;DHT22;4266;48.816;9.154;2024-01-25T11:02:39;22.70;44.50
8459;DHT22;4266;48.816;9.154;2024-01-25T11:05:09;22.60;44.40
8459;DHT22;4266;48.816;9.154;2024-01-25T11:07:44;23.60;44.30
8459;DHT22;4266;48.816;9.154;2024-01-25T11:10:11;24.30;43.90
8459;DHT22;4266;48.816;9.154;2024-01-25T11:12:35;24.50;43.20
8459;DHT22;4266;48.816;9.154;2024-01-25T11:15:06;24.10;43.40
8459;DHT22;4266;48.816;9.154;2024-01-25T11:17:27;23.60;42.40
8459;DHT22;4266;48.816;9.154;2024-01-25T11:19:54;22.40;42.40
8459;DHT22;4266;48.816;9.154;2024-01-25T11:22:19;22.30;42.20
8459;DHT22;4266;48.816;9.154;2024-01-25T11:24:45;23.40;43.50
8459;DHT22;4266;48.816;9.154;2024-01-25T11:27:11;24.20;42.60
8459;DHT22;4266;48.816;9.154;2024-01-25T11:29:37;23.90;41.70
8459;DHT22;4266;48.816;9.154;2024-01-25T11:32:04;24.00;41.70
8459;DHT22;4266;48.816;9.154;2024-01-25T11:34:30;25.10;40.50
8459;DHT22;4266;48.816;9.154;2024-01-25T11:36:57;25.20;40.60
8459;DHT22;4266;48.816;9.154;2024-01-25T11:39:23;25.20;40.60
8459;DHT22;4266;48.816;9.154;2024-01-25T11:41:50;24.40;39.90
8459;DHT22;4266;48.816;9.154;2024-01-25T11:44:14;23.60;41.20
8459;DHT22;4266;48.816;9.154;2024-01-25T11:46:40;24.90;41.00
8459;DHT22;4266;48.816;9.154;2024-01-25T11:49:06;24.30;40.30
8459;DHT22;4266;48.816;9.154;2024-01-25T11:51:33;24.90;40.30
8459;DHT22;4266;48.816;9.154;2024-01-25T11:53:59;24.90;40.30
8459;DHT22;4266;48.816;9.154;2024-01-25T11:56:28;21.20;40.90
8459;DHT22;4266;48.816;9.154;2024-01-25T11:58:54;19.20;42.40
8459;DHT22;4266;48.816;9.154;2024-01-25T12:01:20;19.20;42.50
8459;DHT22;4266;48.816;9.154;2024-01-25T12:03:46;18.80;42.50
8459;DHT22;4266;48.816;9.154;2024-01-25T12:06:11;20.00;43.00
8459;DHT22;4266;48.816;9.154;2024-01-25T12:08:38;22.60;41.50
8459;DHT22;4266;48.816;9.154;2024-01-25T12:11:06;22.60;41.50
8459;DHT22;4266;48.816;9.154;2024-01-25T12:13:32;23.50;41.00
8459;DHT22;4266;48.816;9.154;2024-01-25T12:15:56;23.80;41.00
8459;DHT22;4266;48.816;9.154;2024-01-25T12:18:22;24.80;40.30
8459;DHT22;4266;48.816;9.154;2024-01-25T12:20:48;24.20;39.70
8459;DHT22;4266;48.816;9.154;2024-01-25T12:23:14;24.30;39.60
8459;DHT22;4266;48.816;9.154;2024-01-25T12:25:39;24.90;39.30
8459;DHT22;4266;48.816;9.154;2024-01-25T12:28:06;24.30;39.60
8459;DHT22;4266;48.816;9.154;2024-01-25T12:30:32;24.30;40.10
8459;DHT22;4266;48.816;9.154;2024-01-25T12:32:57;24.60;40.50
8459;DHT22;4266;48.816;9.154;2024-01-25T12:35:23;24.20;40.60
8459;DHT22;4266;48.816;9.154;2024-01-25T12:37:48;24.50;40.70
8459;DHT22;4266;48.816;9.154;2024-01-25T12:40:14;23.30;41.50
8459;DHT22;4266;48.816;9.154;2024-01-25T12:42:40;23.60;41.00
8459;DHT22;4266;48.816;9.154;2024-01-25T12:45:06;24.10;40.70
8459;DHT22;4266;48.816;9.154;2024-01-25T12:47:32;24.40;40.80
8459;DHT22;4266;48.816;9.154;2024-01-25T12:49:58;23.80;40.80
8459;DHT22;4266;48.816;9.154;2024-01-25T12:52:24;23.70;40.60
8459;DHT22;4266;48.816;9.154;2024-01-25T12:54:50;23.60;40.50
8459;DHT22;4266;48.816;9.154;2024-01-25T12:57:16;23.60;40.50
8459;DHT22;4266;48.816;9.154;2024-01-25T12:59:41;23.30;40.60
8459;DHT22;4266;48.816;9.154;2024-01-25T13:02:07;23.00;40.60
8459;DHT22;4266;48.816;9.154;2024-01-25T13:04:33;23.20;41.00
8459;DHT22;4266;48.816;9.154;2024-01-25T13:06:59;22.80;41.00
8459;DHT22;4266;48.816;9.154;2024-01-25T13:09:25;22.90;41.00
8459;DHT22;4266;48.816;9.154;2024-01-25T13:11:51;22.50;40.20
8459;DHT22;4266;48.816;9.154;2024-01-25T13:14:18;22.50;40.20
8459;DHT22;4266;48.816;9.154;2024-01-25T13:16:44;22.20;40.80
8459;DHT22;4266;48.816;9.154;2024-01-25T13:19:10;22.20;40.80
8459;DHT22;4266;48.816;9.154;2024-01-25T13:21:36;21.80;41.50
8459;DHT22;4266;48.816;9.154;2024-01-25T13:24:02;21.80;41.50
8459;DHT22;4266;48.816;9.154;2024-01-25T13:26:28;21.60;40.70
8459;DHT22;4266;48.816;9.154;2024-01-25T13:28:54;21.90;41.00
8459;DHT22;4266;48.816;9.154;2024-01-25T13:31:20;21.90;41.00
8459;DHT22;4266;48.816;9.154;2024-01-25T13:33:46;21.50;41.10
8459;DHT22;4266;48.816;9.154;2024-01-25T13:36:11;21.20;41.40
8459;DHT22;4266;48.816;9.154;2024-01-25T13:38:37;20.90;41.30
8459;DHT22;4266;48.816;9.154;2024-01-25T13:41:03;20.20;41.10
8459;DHT22;4266;48.816;9.154;2024-01-25T13:43:28;20.00;41.40
8459;DHT22;4266;48.816;9.154;2024-01-25T13:45:54;20.30;41.50
8459;DHT22;4266;48.816;9.154;2024-01-25T13:48:20;20.20;41.50
8459;DHT22;4266;48.816;9.154;2024-01-25T13:50:45;19.60;41.40
8459;DHT22;4266;48.816;9.154;2024-01-25T13:53:11;18.60;42.00
8459;DHT22;4266;48.816;9.154;2024-01-25T13:55:37;18.10;42.80
8459;DHT22;4266;48.816;9.154;2024-01-25T13:58:04;17.80;42.70
8459;DHT22;4266;48.816;9.154;2024-01-25T14:00:30;17.50;42.60
8459;DHT22;4266;48.816;9.154;2024-01-25T14:02:56;17.40;42.50
8459;DHT22;4266;48.816;9.154;2024-01-25T14:05:22;17.20;42.80
8459;DHT22;4266;48.816;9.154;2024-01-25T14:07:47;16.80;43.50
8459;DHT22;4266;48.816;9.154;2024-01-25T14:10:13;16.60;43.40
8459;DHT22;4266;48.816;9.154;2024-01-25T14:12:39;16.50;43.70
8459;DHT22;4266;48.816;9.154;2024-01-25T14:15:05;16.00;43.80
8459;DHT22;4266;48.816;9.154;2024-01-25T14:17:30;15.80;44.30
8459;DHT22;4266;48.816;9.154;2024-01-25T14:19:56;15.70;44.50
8459;DHT22;4266;48.816;9.154;2024-01-25T14:22:22;16.00;44.30
8459;DHT22;4266;48.816;9.154;2024-01-25T14:24:47;16.50;44.00
8459;DHT22;4266;48.816;9.154;2024-01-25T14:27:14;15.80;44.30
8459;DHT22;4266;48.816;9.154;2024-01-25T14:29:40;15.10;44.90
8459;DHT22;4266;48.816;9.154;2024-01-25T14:32:06;15.00;44.80
8459;DHT22;4266;48.816;9.154;2024-01-25T14:34:32;15.00;44.90
8459;DHT22;4266;48.816;9.154;2024-01-25T14:36:58;15.00;44.90
8459;DHT22;4266;48.816;9.154;2024-01-25T14:39:24;14.10;45.60
8459;DHT22;4266;48.816;9.154;2024-01-25T14:41:49;13.50;46.20
8459;DHT22;4266;48.816;9.154;2024-01-25T14:44:16;13.00;47.10
8459;DHT22;4266;48.816;9.154;2024-01-25T14:46:42;12.80;47.40
8459;DHT22;4266;48.816;9.154;2024-01-25T14:49:08;12.70;47.30
8459;DHT22;4266;48.816;9.154;2024-01-25T14:51:34;12.60;48.10
8459;DHT22;4266;48.816;9.154;2024-01-25T14:54:00;12.60;48.00
8459;DHT22;4266;48.816;9.154;2024-01-25T14:56:26;12.40;48.30
8459;DHT22;4266;48.816;9.154;2024-01-25T14:58:51;12.30;48.50
8459;DHT22;4266;48.816;9.154;2024-01-25T15:04:10;12.20;48.60
8459;DHT22;4266;48.816;9.154;2024-01-25T15:06:36;12.00;49.00
8459;DHT22;4266;48.816;9.154;2024-01-25T15:09:03;11.90;49.20
8459;DHT22;4266;48.816;9.154;2024-01-25T15:11:29;11.80;49.50
8459;DHT22;4266;48.816;9.154;2024-01-25T15:13:55;11.70;49.50
8459;DHT22;4266;48.816;9.154;2024-01-25T15:16:21;11.70;49.60
8459;DHT22;4266;48.816;9.154;2024-01-25T15:18:47;11.70;49.80
8459;DHT22;4266;48.816;9.154;2024-01-25T15:21:14;11.60;50.10
8459;DHT22;4266;48.816;9.154;2024-01-25T15:23:40;11.60;50.10
8459;DHT22;4266;48.816;9.154;2024-01-25T15:26:06;11.50;50.00
8459;DHT22;4266;48.816;9.154;2024-01-25T15:28:33;11.40;50.50
8459;DHT22;4266;48.816;9.154;2024-01-25T15:30:59;11.30;50.30
8459;DHT22;4266;48.816;9.154;2024-01-25T15:33:25;11.30;50.50
8459;DHT22;4266;48.816;9.154;2024-01-25T15:35:51;11.20;50.90
8459;DHT22;4266;48.816;9.154;2024-01-25T15:38:17;11.20;50.90
8459;DHT22;4266;48.816;9.154;2024-01-25T15:40:42;11.10;51.30
8459;DHT22;4266;48.816;9.154;2024-01-25T15:43:08;11.20;51.00
8459;DHT22;4266;48.816;9.154;2024-01-25T15:45:34;11.00;51.20
8459;DHT22;4266;48.816;9.154;2024-01-25T15:48:00;10.90;51.40
8459;DHT22;4266;48.816;9.154;2024-01-25T15:50:26;10.90;51.30
8459;DHT22;4266;48.816;9.154;2024-01-25T15:52:51;10.80;51.50
8459;DHT22;4266;48.816;9.154;2024-01-25T15:55:17;10.80;52.30
8459;DHT22;4266;48.816;9.154;2024-01-25T15:57:42;10.70;52.10
8459;DHT22;4266;48.816;9.154;2024-01-25T16:00:09;10.80;52.40
8459;DHT22;4266;48.816;9.154;2024-01-25T16:02:35;10.80;52.50
8459;DHT22;4266;48.816;9.154;2024-01-25T16:05:01;10.60;52.80
8459;DHT22;4266;48.816;9.154;2024-01-25T16:07:27;10.70;52.60
8459;DHT22;4266;48.816;9.154;2024-01-25T16:09:54;10.60;52.80
8459;DHT22;4266;48.816;9.154;2024-01-25T16:12:19;10.60;52.80
8459;DHT22;4266;48.816;9.154;2024-01-25T16:14:46;10.50;53.40
8459;DHT22;4266;48.816;9.154;2024-01-25T16:17:11;10.40;53.30